Time;durP1;ratioP1;P1;durP2;ratioP2;P2;SDS_P1;SDS_P2;PMS_P1;PMS_P2;Temp;Humidity;BMP_temperature;BMP_pressure;BME280_temperature;BME280_humidity;BME280_pressure;Samples;Min_cycle;Max_cycle;Signal;HPM_P1;HPM_P2
2021/04/19 00:00:09;;;;;;;0.52;0.52;;;8.20;64.60;;;;;;5074151;28;20040;-76
2021/04/19 00:02:35;;;;;;;0.47;0.40;;;8.20;64.70;;;;;;5074548;28;20097;-75
2021/04/19 00:05:02;;;;;;;1.30;0.45;;;8.10;64.80;;;;;;5054951;28;20047;-76
2021/04/19 00:07:28;;;;;;;0.52;0.40;;;8.10;64.80;;;;;;5073909;28;20043;-76
2021/04/19 00:09:54;;;;;;;1.27;0.63;;;8.10;64.90;;;;;;5072892;28;20044;-76
2021/04/19 00:12:20;;;;;;;0.32;0.32;;;8.00;64.90;;;;;;5073810;28;20033;-75
2021/04/19 00:14:47;;;;;;;0.22;0.22;;;8.00;65.00;;;;;;5073857;28;20036;-76
2021/04/19 00:17:13;;;;;;;1.33;0.60;;;7.90;65.00;;;;;;5072427;28;20036;-76
2021/04/19 00:19:39;;;;;;;0.30;0.30;;;7.90;65.10;;;;;;5055814;28;20075;-76
2021/04/19 00:22:05;;;;;;;0.70;0.40;;;7.90;65.20;;;;;;5072959;28;20153;-76
2021/04/19 00:24:32;;;;;;;0.57;0.30;;;7.90;65.30;;;;;;5073093;28;20085;-76
2021/04/19 00:26:58;;;;;;;0.52;0.50;;;7.80;65.40;;;;;;5072587;28;20037;-77
2021/04/19 00:29:24;;;;;;;0.82;0.50;;;7.80;65.40;;;;;;5055939;28;20393;-76
2021/04/19 00:31:50;;;;;;;0.77;0.50;;;7.80;65.40;;;;;;5073088;28;20033;-76
2021/04/19 00:34:17;;;;;;;0.40;0.40;;;7.70;65.50;;;;;;5074005;28;20029;-75
2021/04/19 00:36:43;;;;;;;0.28;0.28;;;7.70;65.50;;;;;;5072837;28;20035;-75
2021/04/19 00:39:09;;;;;;;0.40;0.40;;;7.70;65.60;;;;;;5072168;28;20052;-76
2021/04/19 00:41:35;;;;;;;0.90;0.50;;;7.70;65.60;;;;;;5073498;28;20063;-76
2021/04/19 00:44:02;;;;;;;0.40;0.40;;;7.60;65.60;;;;;;5072354;28;20132;-75
2021/04/19 00:46:29;;;;;;;0.77;0.30;;;7.60;65.70;;;;;;5039296;28;20036;-76
2021/04/19 00:48:55;;;;;;;0.50;0.50;;;7.60;65.80;;;;;;5057036;28;20051;-75
2021/04/19 00:51:21;;;;;;;0.45;0.40;;;7.60;65.80;;;;;;5072208;28;20090;-75
2021/04/19 00:53:48;;;;;;;0.82;0.50;;;7.60;65.90;;;;;;5072266;28;20043;-75
2021/04/19 00:56:14;;;;;;;0.43;0.43;;;7.60;66.00;;;;;;5073469;28;20040;-75
2021/04/19 00:58:42;;;;;;;0.90;0.55;;;7.50;66.00;;;;;;5071799;28;20494;-75
2021/04/19 01:01:09;;;;;;;0.52;0.45;;;7.40;66.10;;;;;;5073758;28;20032;-75
2021/04/19 01:03:36;;;;;;;0.47;0.40;;;7.50;66.20;;;;;;5038987;28;20064;-77
2021/04/19 01:06:03;;;;;;;0.80;0.50;;;7.50;66.30;;;;;;5071887;28;20036;-77
2021/04/19 01:08:29;;;;;;;0.88;0.65;;;7.50;66.30;;;;;;5073166;28;20028;-77
2021/04/19 01:10:55;;;;;;;0.50;0.50;;;7.40;66.40;;;;;;5073027;28;20037;-77
2021/04/19 01:13:22;;;;;;;2.25;0.50;;;7.40;66.50;;;;;;5072225;28;20028;-77
2021/04/19 01:15:48;;;;;;;0.30;0.30;;;7.30;66.50;;;;;;5022210;28;20478;-77
2021/04/19 01:18:14;;;;;;;0.57;0.50;;;7.30;66.60;;;;;;5053470;28;20039;-77
2021/04/19 01:20:43;;;;;;;0.50;0.40;;;7.30;66.70;;;;;;5073269;28;20029;-77
2021/04/19 01:23:11;;;;;;;0.95;0.40;;;7.20;66.80;;;;;;5072754;28;20045;-77
2021/04/19 01:25:38;;;;;;;0.35;0.35;;;7.20;66.80;;;;;;5071377;28;20393;-77
2021/04/19 01:28:04;;;;;;;0.50;0.40;;;7.20;66.90;;;;;;5071822;28;20044;-77
2021/04/19 01:30:36;;;;;;;1.02;0.57;;;7.10;66.90;;;;;;5038199;28;20051;-77
2021/04/19 01:33:03;;;;;;;0.70;0.50;;;7.10;67.10;;;;;;5072780;28;20502;-77
2021/04/19 01:35:29;;;;;;;0.73;0.60;;;7.10;67.10;;;;;;5071783;28;20048;-77
2021/04/19 01:37:56;;;;;;;0.60;0.60;;;7.00;67.20;;;;;;5072563;28;20051;-77
2021/04/19 01:40:23;;;;;;;2.95;1.00;;;7.00;67.40;;;;;;5071647;28;20118;-77
2021/04/19 01:42:49;;;;;;;2.47;0.70;;;6.90;67.40;;;;;;5071502;28;20067;-77
2021/04/19 01:45:18;;;;;;;0.90;0.52;;;7.00;67.60;;;;;;5072880;28;20044;-77
2021/04/19 01:47:45;;;;;;;1.13;0.70;;;6.90;67.70;;;;;;5070761;28;20146;-77
2021/04/19 01:50:14;;;;;;;1.60;0.90;;;6.80;67.80;;;;;;5072799;28;20123;-77
2021/04/19 01:52:42;;;;;;;1.10;0.70;;;6.80;67.80;;;;;;5053590;28;20042;-77
2021/04/19 01:55:12;;;;;;;0.80;0.68;;;6.70;67.90;;;;;;5072214;28;20040;-74
2021/04/19 01:57:41;;;;;;;1.92;1.10;;;6.70;68.10;;;;;;5053226;28;20495;-74
2021/04/19 02:00:09;;;;;;;1.15;0.70;;;6.70;68.10;;;;;;5053678;28;20045;-74
2021/04/19 02:03:00;;;;;;;0.98;0.57;;;6.70;68.20;;;;;;5071059;28;20568;-75
2021/04/19 02:05:53;;;;;;;2.38;0.75;;;6.60;68.20;;;;;;5070958;28;20036;-75
2021/04/19 02:08:41;;;;;;;0.68;0.65;;;6.60;68.30;;;;;;5072453;28;20112;-74
2021/04/19 02:11:21;;;;;;;0.55;0.43;;;6.60;68.40;;;;;;5069100;28;20028;-75
2021/04/19 02:14:03;;;;;;;1.20;0.60;;;6.60;68.40;;;;;;5072028;28;20094;-74
2021/04/19 02:16:46;;;;;;;0.65;0.60;;;6.60;68.60;;;;;;5054207;28;20094;-75
2021/04/19 02:19:34;;;;;;;0.40;0.40;;;6.50;68.70;;;;;;5052631;28;20036;-74
2021/04/19 02:22:13;;;;;;;1.05;0.77;;;6.50;68.70;;;;;;5070521;28;20497;-75
2021/04/19 02:24:45;;;;;;;0.57;0.40;;;6.50;68.80;;;;;;5052461;28;20382;-75
2021/04/19 02:27:18;;;;;;;0.55;0.50;;;6.40;69.50;;;;;;5072095;28;20055;-75
2021/04/19 02:29:48;;;;;;;0.63;0.60;;;6.40;68.90;;;;;;5072009;28;20040;-75
2021/04/19 02:32:19;;;;;;;0.70;0.50;;;6.30;69.00;;;;;;5052528;28;20044;-75
2021/04/19 02:34:48;;;;;;;0.73;0.50;;;6.40;69.10;;;;;;5053035;28;20040;-75
2021/04/19 02:37:16;;;;;;;0.60;0.45;;;6.30;69.20;;;;;;5071545;28;20029;-75
2021/04/19 02:39:45;;;;;;;0.40;0.40;;;6.30;69.30;;;;;;5070265;28;20520;-75
2021/04/19 02:42:13;;;;;;;1.48;0.55;;;6.20;69.40;;;;;;5070129;28;20081;-75
2021/04/19 02:44:41;;;;;;;1.00;0.47;;;6.10;69.50;;;;;;5070697;28;20056;-75
2021/04/19 02:47:07;;;;;;;0.68;0.47;;;6.20;69.60;;;;;;5053298;28;20024;-76
2021/04/19 02:49:35;;;;;;;0.68;0.50;;;6.20;69.50;;;;;;5070001;28;20385;-76
2021/04/19 02:52:05;;;;;;;0.93;0.40;;;6.20;69.60;;;;;;5037210;28;20043;-78
2021/04/19 02:54:33;;;;;;;0.68;0.40;;;6.20;69.70;;;;;;5039548;28;20556;-77
2021/04/19 02:57:00;;;;;;;1.00;0.52;;;6.20;69.70;;;;;;5052624;28;20035;-77
2021/04/19 02:59:30;;;;;;;0.40;0.35;;;6.20;69.60;;;;;;5071922;28;20050;-77
2021/04/19 03:02:06;;;;;;;1.48;0.70;;;6.20;69.80;;;;;;5053915;28;20087;-76
2021/04/19 03:04:38;;;;;;;0.70;0.45;;;6.20;69.80;;;;;;5070501;28;20033;-77
2021/04/19 03:07:08;;;;;;;1.17;0.77;;;6.20;69.80;;;;;;5073680;28;20040;-77
2021/04/19 03:09:40;;;;;;;2.03;0.50;;;6.20;69.90;;;;;;5074077;28;20390;-77
2021/04/19 03:12:08;;;;;;;0.32;0.32;;;6.10;70.00;;;;;;5075164;28;20490;-77
2021/04/19 03:14:38;;;;;;;1.00;0.50;;;6.10;70.00;;;;;;5073572;28;20075;-75
2021/04/19 03:17:09;;;;;;;0.77;0.50;;;6.10;70.10;;;;;;5074126;28;20044;-76
2021/04/19 03:19:38;;;;;;;0.68;0.60;;;6.10;70.30;;;;;;5074822;28;20085;-76
2021/04/19 03:22:06;;;;;;;0.50;0.40;;;6.00;70.30;;;;;;5074250;28;20040;-75
2021/04/19 03:24:35;;;;;;;0.50;0.50;;;6.10;70.40;;;;;;5073394;28;20051;-75
2021/04/19 03:27:02;;;;;;;0.55;0.35;;;5.90;70.40;;;;;;5074746;28;20056;-75
2021/04/19 03:29:31;;;;;;;0.55;0.50;;;6.00;70.50;;;;;;5073654;28;20032;-76
2021/04/19 03:32:02;;;;;;;0.57;0.40;;;6.00;70.60;;;;;;5074772;28;20043;-76
2021/04/19 03:34:32;;;;;;;0.82;0.60;;;6.00;70.60;;;;;;5056785;28;20032;-77
2021/04/19 03:37:04;;;;;;;0.63;0.40;;;6.00;70.60;;;;;;5073176;28;20040;-77
2021/04/19 03:39:33;;;;;;;0.55;0.50;;;5.90;70.60;;;;;;5074508;28;20072;-75
2021/04/19 03:42:01;;;;;;;1.67;0.57;;;5.80;70.70;;;;;;5073034;28;20036;-76
2021/04/19 03:44:31;;;;;;;0.75;0.45;;;5.90;70.90;;;;;;5074445;28;20137;-76
2021/04/19 03:47:01;;;;;;;0.30;0.30;;;5.80;70.90;;;;;;5073057;28;20483;-77
2021/04/19 03:49:35;;;;;;;0.93;0.60;;;5.70;70.90;;;;;;5056200;28;20098;-75
2021/04/19 03:52:05;;;;;;;1.33;0.70;;;5.90;71.10;;;;;;5074942;28;20093;-75
2021/04/19 03:54:35;;;;;;;1.05;0.70;;;5.80;71.10;;;;;;5073505;28;20493;-75
2021/04/19 03:57:03;;;;;;;0.73;0.50;;;5.70;71.20;;;;;;5056961;28;20075;-75
2021/04/19 03:59:32;;;;;;;0.77;0.55;;;5.70;71.20;;;;;;5073085;28;20044;-75
2021/04/19 04:02:02;;;;;;;1.50;0.90;;;5.70;71.30;;;;;;5055548;28;20059;-75
2021/04/19 04:04:30;;;;;;;1.65;0.50;;;5.70;71.40;;;;;;5055920;28;20098;-75
2021/04/19 04:06:58;;;;;;;1.20;0.70;;;5.70;71.40;;;;;;5073587;28;20040;-75
2021/04/19 04:09:25;;;;;;;0.40;0.40;;;5.70;71.50;;;;;;5055684;28;20123;-76
2021/04/19 04:11:51;;;;;;;0.50;0.50;;;5.70;71.50;;;;;;5072581;28;20066;-75
2021/04/19 04:14:17;;;;;;;0.52;0.40;;;5.70;71.50;;;;;;5073417;28;20037;-76
2021/04/19 04:16:44;;;;;;;0.93;0.57;;;5.80;71.50;;;;;;5074184;28;20401;-76
2021/04/19 04:19:11;;;;;;;0.73;0.50;;;5.70;71.50;;;;;;5054703;28;20113;-76
2021/04/19 04:21:38;;;;;;;0.68;0.57;;;5.70;71.60;;;;;;5074016;28;20386;-76
2021/04/19 04:24:05;;;;;;;0.70;0.60;;;5.70;71.50;;;;;;5074460;28;20033;-76
2021/04/19 04:26:32;;;;;;;0.60;0.50;;;5.70;71.60;;;;;;5055426;28;20021;-76
2021/04/19 04:28:59;;;;;;;1.40;0.80;;;5.70;71.60;;;;;;5073332;28;20498;-75
2021/04/19 04:31:25;;;;;;;0.88;0.60;;;5.70;71.70;;;;;;5073830;28;20037;-75
2021/04/19 04:33:51;;;;;;;0.80;0.55;;;5.80;72.40;;;;;;5057209;28;20036;-75
2021/04/19 04:36:17;;;;;;;1.15;0.60;;;5.80;71.70;;;;;;5072780;28;20049;-76
2021/04/19 04:38:44;;;;;;;0.75;0.50;;;5.80;71.80;;;;;;5073134;28;20073;-75
2021/04/19 04:41:11;;;;;;;1.48;0.80;;;5.80;71.70;;;;;;5072593;28;20090;-75
2021/04/19 04:43:41;;;;;;;1.20;0.90;;;5.90;71.80;;;;;;5074198;28;20516;-76
2021/04/19 04:46:21;;;;;;;1.85;0.77;;;5.90;71.90;;;;;;5054162;28;20504;-76
2021/04/19 04:49:12;;;;;;;2.05;0.77;;;5.90;72.00;;;;;;5072146;28;20521;-76
2021/04/19 04:51:40;;;;;;;0.90;0.60;;;5.90;72.00;;;;;;5074017;28;20109;-75
2021/04/19 04:54:16;;;;;;;2.58;1.20;;;5.90;71.70;;;;;;5073243;28;20124;-75
2021/04/19 04:56:48;;;;;;;0.85;0.73;;;6.00;72.00;;;;;;5073355;28;20044;-75
2021/04/19 04:59:15;;;;;;;1.73;1.08;;;6.00;71.90;;;;;;5073404;28;20064;-75
2021/04/19 05:01:43;;;;;;;1.70;1.00;;;5.90;71.90;;;;;;5073509;28;20045;-75
2021/04/19 05:04:09;;;;;;;1.00;0.70;;;6.00;72.00;;;;;;5072081;28;20443;-75
2021/04/19 05:06:37;;;;;;;2.20;1.00;;;6.00;72.00;;;;;;5055375;28;20036;-75
2021/04/19 05:09:03;;;;;;;1.30;0.80;;;6.00;72.00;;;;;;5072127;28;20043;-75
2021/04/19 05:11:30;;;;;;;0.88;0.60;;;6.00;72.10;;;;;;5072451;28;20154;-76
2021/04/19 05:14:01;;;;;;;1.10;0.70;;;6.00;72.20;;;;;;5072073;28;20402;-75
2021/04/19 05:16:28;;;;;;;1.52;0.82;;;6.00;72.20;;;;;;5073260;28;20059;-75
2021/04/19 05:18:56;;;;;;;1.25;0.80;;;6.10;72.30;;;;;;5073643;28;20048;-76
2021/04/19 05:21:23;;;;;;;1.95;1.05;;;6.10;72.40;;;;;;5055271;28;20360;-76
2021/04/19 05:23:49;;;;;;;1.55;1.00;;;6.10;72.40;;;;;;5021138;28;20033;-75
2021/04/19 05:26:15;;;;;;;1.50;1.05;;;6.10;72.40;;;;;;5072091;28;20032;-76
2021/04/19 05:28:41;;;;;;;1.13;0.75;;;6.10;72.50;;;;;;5054879;28;20493;-76
2021/04/19 05:31:10;;;;;;;1.58;0.82;;;6.20;72.60;;;;;;5072212;28;20530;-76
2021/04/19 05:33:37;;;;;;;1.50;0.88;;;6.10;72.70;;;;;;5073076;28;20059;-75
2021/04/19 05:36:10;;;;;;;1.65;1.10;;;6.20;72.80;;;;;;5072721;28;20123;-75
2021/04/19 05:38:38;;;;;;;2.58;1.25;;;6.20;72.80;;;;;;5072284;28;20044;-73
2021/04/19 05:41:05;;;;;;;1.05;0.65;;;6.20;72.90;;;;;;5073070;28;20032;-74
2021/04/19 05:43:32;;;;;;;1.52;0.85;;;6.20;73.00;;;;;;5072459;28;20493;-73
2021/04/19 05:45:59;;;;;;;1.17;0.80;;;6.10;73.00;;;;;;5072511;28;20490;-72
2021/04/19 05:48:26;;;;;;;1.20;0.90;;;6.20;73.20;;;;;;5071127;28;20139;-72
2021/04/19 05:50:57;;;;;;;1.98;1.10;;;6.20;73.20;;;;;;5072473;28;20066;-72
2021/04/19 05:53:24;;;;;;;1.83;0.90;;;6.20;73.30;;;;;;5072184;28;20047;-72
2021/04/19 05:55:55;;;;;;;1.00;0.73;;;6.20;73.30;;;;;;5036865;28;20126;-73
2021/04/19 05:58:29;;;;;;;1.38;0.80;;;6.20;73.50;;;;;;5038263;28;20035;-72
2021/04/19 06:01:16;;;;;;;1.33;0.80;;;6.20;73.60;;;;;;5072181;28;20501;-72
2021/04/19 06:03:57;;;;;;;0.80;0.60;;;6.30;73.60;;;;;;5071817;28;20109;-72
2021/04/19 06:06:38;;;;;;;1.83;0.90;;;6.30;73.80;;;;;;5072861;28;20115;-72
2021/04/19 06:09:12;;;;;;;1.00;0.65;;;6.40;73.80;;;;;;5070601;28;20021;-72
2021/04/19 06:11:44;;;;;;;2.60;1.20;;;6.30;73.70;;;;;;5070943;28;20397;-73
2021/04/19 06:14:15;;;;;;;1.13;0.70;;;6.40;73.80;;;;;;5071818;28;20076;-73
2021/04/19 06:16:42;;;;;;;0.80;0.60;;;6.40;73.90;;;;;;5071739;28;20515;-74
2021/04/19 06:19:14;;;;;;;1.27;1.00;;;6.50;73.90;;;;;;5070500;28;20063;-74
2021/04/19 06:21:40;;;;;;;0.77;0.77;;;6.50;73.90;;;;;;5070493;28;20036;-74
2021/04/19 06:24:07;;;;;;;2.55;1.30;;;6.60;73.80;;;;;;5072399;28;20036;-74
2021/04/19 06:26:35;;;;;;;1.35;0.80;;;6.70;73.80;;;;;;5071196;28;20040;-75
2021/04/19 06:29:03;;;;;;;1.40;0.85;;;6.70;73.70;;;;;;5051160;28;20045;-74
2021/04/19 06:31:30;;;;;;;1.42;0.90;;;6.80;73.70;;;;;;5071475;28;20044;-74
2021/04/19 06:34:06;;;;;;;2.15;1.00;;;6.90;73.70;;;;;;5072391;28;20041;-74
2021/04/19 06:36:35;;;;;;;1.60;0.98;;;6.90;73.70;;;;;;5048713;28;20470;-74
2021/04/19 06:39:02;;;;;;;1.08;0.80;;;7.00;73.60;;;;;;5053809;28;20048;-74
2021/04/19 06:41:30;;;;;;;2.03;1.30;;;7.00;73.70;;;;;;5066661;28;20037;-73
2021/04/19 06:43:57;;;;;;;1.70;1.13;;;7.00;73.80;;;;;;5071821;28;20117;-73
2021/04/19 06:46:30;;;;;;;1.67;1.00;;;7.00;73.90;;;;;;5067321;28;20503;-74
2021/04/19 06:48:57;;;;;;;2.42;1.23;;;7.00;74.00;;;;;;5072405;28;20044;-74
2021/04/19 06:51:23;;;;;;;1.95;1.20;;;7.00;74.10;;;;;;5071768;28;20497;-74
2021/04/19 06:53:52;;;;;;;1.70;0.95;;;7.00;74.30;;;;;;5071507;28;20035;-74
2021/04/19 06:56:23;;;;;;;1.58;0.95;;;7.00;74.40;;;;;;5072236;28;20036;-74
2021/04/19 06:58:52;;;;;;;1.15;0.77;;;7.00;74.60;;;;;;5072259;28;20470;-75
2021/04/19 07:01:21;;;;;;;2.28;1.08;;;7.00;74.60;;;;;;5053765;28;20492;-74
2021/04/19 07:03:52;;;;;;;1.50;0.80;;;7.00;74.70;;;;;;5070494;28;20406;-75
2021/04/19 07:06:21;;;;;;;1.00;0.80;;;7.00;74.70;;;;;;5070207;28;20052;-77
2021/04/19 07:08:49;;;;;;;1.27;0.70;;;7.00;74.70;;;;;;5070225;28;20108;-76
2021/04/19 07:11:21;;;;;;;1.42;0.88;;;7.10;74.80;;;;;;5052793;28;20059;-75
2021/04/19 07:13:49;;;;;;;1.80;0.93;;;7.20;74.90;;;;;;5070617;28;20067;-75
2021/04/19 07:16:17;;;;;;;1.30;0.75;;;7.20;74.80;;;;;;5052839;28;20040;-76
2021/04/19 07:18:43;;;;;;;1.45;0.75;;;7.40;75.50;;;;;;5071519;28;20044;-75
2021/04/19 07:21:11;;;;;;;2.80;1.00;;;7.50;74.80;;;;;;5053090;28;20040;-74
2021/04/19 07:23:39;;;;;;;1.15;0.82;;;7.60;74.50;;;;;;5069430;28;20047;-75
2021/04/19 07:26:06;;;;;;;1.67;1.00;;;7.90;74.30;;;;;;5071175;28;20119;-74
2021/04/19 07:28:37;;;;;;;1.85;0.88;;;8.00;74.10;;;;;;5070392;28;20107;-74
2021/04/19 07:31:06;;;;;;;2.00;1.00;;;8.20;73.90;;;;;;5071340;28;20506;-74
2021/04/19 07:33:34;;;;;;;3.38;1.08;;;8.30;73.70;;;;;;5071574;28;20048;-75
2021/04/19 07:36:31;;;;;;;1.40;0.90;;;8.50;73.60;;;;;;5069942;28;20039;-74
2021/04/19 07:39:00;;;;;;;1.90;1.10;;;8.60;73.40;;;;;;5071773;28;20131;-73
2021/04/19 07:41:54;;;;;;;1.38;0.95;;;8.90;73.20;;;;;;5069867;28;20028;-73
2021/04/19 07:44:38;;;;;;;1.42;1.00;;;9.10;73.00;;;;;;5071142;28;20063;-75
2021/04/19 07:47:34;;;;;;;1.35;0.95;;;9.20;72.80;;;;;;5072642;28;20032;-73
2021/04/19 07:50:19;;;;;;;1.85;1.00;;;9.30;72.80;;;;;;5074494;28;20058;-74
2021/04/19 07:53:02;;;;;;;2.80;1.10;;;9.40;72.90;;;;;;5074947;28;20494;-74
2021/04/19 07:55:32;;;;;;;1.67;1.10;;;9.50;72.90;;;;;;5074597;28;20041;-75
2021/04/19 07:57:59;;;;;;;1.75;1.02;;;9.60;72.90;;;;;;5073514;28;20489;-73
2021/04/19 08:00:32;;;;;;;1.67;1.00;;;9.70;72.90;;;;;;5072864;28;20508;-74
2021/04/19 08:03:10;;;;;;;1.67;1.17;;;9.90;72.80;;;;;;5074511;28;20087;-73
2021/04/19 08:05:47;;;;;;;1.90;1.08;;;10.00;72.70;;;;;;5072731;28;20059;-73
2021/04/19 08:08:15;;;;;;;1.60;1.10;;;10.10;72.70;;;;;;5074175;28;20082;-73
2021/04/19 08:10:44;;;;;;;2.58;1.40;;;10.20;72.60;;;;;;5074330;28;20140;-73
2021/04/19 08:13:13;;;;;;;1.90;1.13;;;10.20;72.80;;;;;;5074858;28;20037;-74
2021/04/19 08:15:42;;;;;;;2.55;1.30;;;10.30;72.90;;;;;;5072408;28;20032;-73
2021/04/19 08:18:14;;;;;;;2.05;1.30;;;10.40;73.00;;;;;;5074939;28;20041;-74
2021/04/19 08:20:57;;;;;;;1.42;1.20;;;10.40;73.10;;;;;;5077731;28;20079;-74
2021/04/19 08:23:24;;;;;;;2.78;1.48;;;10.50;73.20;;;;;;5073596;28;20096;-73
2021/04/19 08:25:53;;;;;;;2.40;1.45;;;10.60;73.20;;;;;;5073164;28;20510;-73
2021/04/19 08:28:22;;;;;;;1.83;1.17;;;10.80;72.90;;;;;;5025355;28;20427;-74
2021/04/19 08:30:51;;;;;;;2.47;1.35;;;10.80;72.80;;;;;;5074762;28;20182;-74
2021/04/19 08:33:18;;;;;;;2.08;1.35;;;10.90;72.90;;;;;;5075000;28;20193;-74
2021/04/19 08:35:47;;;;;;;2.40;1.30;;;10.80;73.10;;;;;;5075028;28;20040;-74
2021/04/19 08:38:17;;;;;;;2.30;1.42;;;10.70;73.30;;;;;;5077347;28;20042;-74
2021/04/19 08:40:44;;;;;;;2.08;1.13;;;10.80;73.60;;;;;;5056343;28;20037;-74
2021/04/19 08:43:15;;;;;;;2.30;1.20;;;10.70;73.70;;;;;;5074089;28;20058;-74
2021/04/19 08:45:42;;;;;;;2.65;1.23;;;10.90;73.80;;;;;;5073051;28;20028;-73
2021/04/19 08:48:11;;;;;;;1.35;1.00;;;11.00;73.50;;;;;;5039079;28;20055;-73
2021/04/19 08:50:39;;;;;;;0.80;0.70;;;11.00;73.30;;;;;;5072544;28;20067;-73
2021/04/19 08:53:09;;;;;;;2.33;1.23;;;11.10;73.50;;;;;;5073900;28;20143;-73
2021/04/19 08:55:36;;;;;;;1.63;1.00;;;11.20;73.50;;;;;;5054840;28;20045;-73
2021/04/19 08:58:09;;;;;;;1.45;1.20;;;11.30;73.30;;;;;;5070750;28;20040;-75
2021/04/19 09:00:38;;;;;;;1.38;1.00;;;11.30;73.20;;;;;;5072069;28;20047;-72
2021/04/19 09:03:06;;;;;;;1.42;0.90;;;11.40;73.40;;;;;;5071813;28;20490;-74
2021/04/19 09:05:33;;;;;;;1.17;1.00;;;11.40;73.50;;;;;;5073377;28;20043;-74
2021/04/19 09:08:09;;;;;;;1.95;1.17;;;11.50;73.50;;;;;;5073426;28;20044;-73
2021/04/19 09:10:56;;;;;;;1.00;0.88;;;11.50;73.50;;;;;;5071963;28;20129;-73
2021/04/19 09:13:35;;;;;;;1.20;0.90;;;11.30;73.40;;;;;;5073107;28;20068;-75
2021/04/19 09:16:22;;;;;;;1.80;1.10;;;11.50;73.70;;;;;;5073399;28;20127;-75
2021/04/19 09:18:57;;;;;;;1.27;1.10;;;11.50;73.70;;;;;;5071692;28;20050;-74
2021/04/19 09:21:50;;;;;;;2.03;1.20;;;11.50;73.80;;;;;;5073075;28;20509;-74
2021/04/19 09:24:19;;;;;;;1.80;1.10;;;11.70;73.60;;;;;;5073720;28;20028;-75
2021/04/19 09:26:53;;;;;;;1.63;1.00;;;12.00;73.20;;;;;;5073128;28;20036;-74
2021/04/19 09:29:43;;;;;;;2.90;1.10;;;12.10;72.80;;;;;;5071803;28;20032;-74
2021/04/19 09:32:17;;;;;;;0.93;0.85;;;12.10;72.80;;;;;;5071029;28;20029;-73
2021/04/19 09:34:45;;;;;;;1.38;1.02;;;12.30;72.60;;;;;;5039866;28;20587;-74
2021/04/19 09:37:16;;;;;;;1.40;1.00;;;12.40;72.50;;;;;;5054713;28;20047;-74
2021/04/19 09:39:46;;;;;;;1.95;1.00;;;12.40;72.40;;;;;;5071232;28;20075;-74
2021/04/19 09:42:13;;;;;;;1.48;1.02;;;12.50;72.40;;;;;;5072735;28;20047;-74
2021/04/19 09:44:55;;;;;;;1.90;1.20;;;12.60;72.40;;;;;;5072937;28;20101;-73
2021/04/19 09:47:51;;;;;;;1.55;1.20;;;12.70;72.20;;;;;;5071375;28;20059;-74
2021/04/19 09:50:23;;;;;;;1.70;1.00;;;12.80;72.10;;;;;;5071536;28;20094;-74
2021/04/19 09:52:52;;;;;;;2.13;1.30;;;12.80;72.00;;;;;;5071428;28;20119;-75
2021/04/19 09:55:20;;;;;;;2.60;1.33;;;12.90;72.00;;;;;;5073099;28;20440;-76
2021/04/19 09:57:47;;;;;;;1.75;1.08;;;13.10;72.00;;;;;;5071184;28;20159;-76
2021/04/19 10:00:16;;;;;;;1.38;1.13;;;13.20;71.70;;;;;;5071127;28;20048;-74
2021/04/19 10:02:43;;;;;;;1.88;1.00;;;13.40;71.50;;;;;;5071739;28;20056;-73
2021/04/19 10:05:12;;;;;;;1.60;1.23;;;13.40;71.40;;;;;;5071301;28;20086;-75
2021/04/19 10:07:43;;;;;;;1.35;1.10;;;13.50;71.10;;;;;;5071008;28;20033;-74
2021/04/19 10:10:12;;;;;;;1.33;1.05;;;13.50;71.30;;;;;;5072157;28;20036;-75
2021/04/19 10:12:45;;;;;;;1.63;1.20;;;13.50;71.60;;;;;;5070090;28;20037;-73
2021/04/19 10:15:27;;;;;;;1.75;1.13;;;13.50;71.40;;;;;;5071339;28;20456;-75
2021/04/19 10:17:54;;;;;;;1.83;1.30;;;13.40;71.50;;;;;;5075688;28;20485;-77
2021/04/19 10:20:26;;;;;;;1.65;1.20;;;13.50;71.60;;;;;;5072225;28;20041;-75
2021/04/19 10:23:13;;;;;;;2.17;1.52;;;13.50;71.60;;;;;;5072671;28;20041;-75
2021/04/19 10:25:52;;;;;;;1.80;1.40;;;13.60;71.70;;;;;;5070998;28;20050;-78
2021/04/19 10:28:38;;;;;;;1.85;1.00;;;13.50;71.70;;;;;;5072377;28;20095;-77
2021/04/19 10:31:10;;;;;;;1.45;1.17;;;13.50;71.70;;;;;;5073025;28;20040;-74
2021/04/19 10:33:37;;;;;;;1.70;1.30;;;13.40;71.80;;;;;;5070447;28;20445;-75
2021/04/19 10:36:20;;;;;;;1.65;1.30;;;13.50;71.80;;;;;;5070642;28;20044;-77
2021/04/19 10:38:51;;;;;;;1.55;1.25;;;13.50;71.80;;;;;;5070636;28;20039;-76
2021/04/19 10:41:36;;;;;;;1.08;0.90;;;13.50;71.70;;;;;;5070671;28;20103;-75
2021/04/19 10:44:04;;;;;;;1.42;1.20;;;13.50;71.80;;;;;;5070009;28;20119;-75
2021/04/19 10:46:34;;;;;;;1.42;1.00;;;13.60;71.60;;;;;;5070839;28;20088;-77
2021/04/19 10:49:03;;;;;;;1.35;1.17;;;13.70;71.60;;;;;;5070031;28;20082;-74
2021/04/19 10:51:31;;;;;;;2.00;1.30;;;13.80;71.50;;;;;;5071878;28;20044;-77
2021/04/19 10:54:01;;;;;;;1.80;1.35;;;14.00;71.10;;;;;;5070139;28;20040;-75
2021/04/19 10:56:29;;;;;;;1.67;1.05;;;14.20;70.70;;;;;;5071512;28;20072;-77
2021/04/19 10:59:05;;;;;;;1.55;1.38;;;14.30;70.30;;;;;;5070137;28;20115;-76
2021/04/19 11:01:34;;;;;;;1.13;1.02;;;14.30;70.40;;;;;;5070171;28;20029;-73
2021/04/19 11:04:02;;;;;;;1.42;1.00;;;14.20;70.40;;;;;;5070072;28;20029;-74
2021/04/19 11:06:28;;;;;;;1.65;1.02;;;14.40;70.50;;;;;;5071347;28;20040;-75
2021/04/19 11:09:12;;;;;;;1.65;1.13;;;14.30;70.30;;;;;;5053210;28;20075;-76
2021/04/19 11:11:42;;;;;;;1.08;0.90;;;14.30;70.10;;;;;;5069902;28;20032;-77
2021/04/19 11:14:25;;;;;;;1.67;1.10;;;14.40;70.20;;;;;;5052487;28;20394;-74
2021/04/19 11:17:03;;;;;;;1.45;1.15;;;14.40;70.40;;;;;;5071457;28;20036;-76
2021/04/19 11:19:42;;;;;;;1.02;0.90;;;14.50;70.30;;;;;;5039344;28;20072;-76
2021/04/19 11:22:29;;;;;;;1.30;1.00;;;14.50;69.90;;;;;;5073169;28;20040;-74
2021/04/19 11:25:12;;;;;;;2.08;1.33;;;14.70;69.80;;;;;;5074839;28;20127;-76
2021/04/19 11:27:39;;;;;;;1.13;1.02;;;14.70;69.60;;;;;;5073432;28;20028;-74
2021/04/19 11:30:18;;;;;;;1.30;1.00;;;14.80;69.60;;;;;;5073755;28;20067;-75
2021/04/19 11:32:44;;;;;;;1.77;1.05;;;14.90;69.20;;;;;;5073453;28;20047;-76
2021/04/19 11:35:24;;;;;;;1.23;0.93;;;14.90;69.10;;;;;;5073379;28;20126;-76
2021/04/19 11:37:59;;;;;;;0.85;0.82;;;15.00;69.20;;;;;;5078047;28;20041;-74
2021/04/19 11:40:30;;;;;;;1.10;1.00;;;15.30;68.90;;;;;;5071973;28;20043;-75
2021/04/19 11:42:56;;;;;;;1.02;0.90;;;15.60;68.20;;;;;;5074232;28;20036;-75
2021/04/19 11:45:26;;;;;;;1.00;0.90;;;15.70;67.50;;;;;;5073839;28;20043;-75
2021/04/19 11:47:58;;;;;;;1.00;0.90;;;15.80;67.00;;;;;;5074085;28;20040;-76
2021/04/19 11:50:26;;;;;;;1.05;0.90;;;15.80;67.20;;;;;;5041894;28;20131;-76
2021/04/19 11:52:52;;;;;;;0.95;0.90;;;15.70;67.40;;;;;;5075159;28;20545;-77
2021/04/19 11:55:19;;;;;;;1.00;0.90;;;15.60;67.70;;;;;;5054746;28;20043;-78
2021/04/19 11:57:45;;;;;;;0.80;0.80;;;15.40;68.00;;;;;;5073413;28;20117;-77
2021/04/19 12:00:13;;;;;;;0.82;0.82;;;15.20;68.40;;;;;;5073257;28;20048;-74
2021/04/19 12:02:39;;;;;;;1.10;0.77;;;15.00;68.80;;;;;;5072995;28;20040;-77
2021/04/19 12:05:07;;;;;;;0.93;0.70;;;14.80;69.10;;;;;;5073438;28;20397;-75
2021/04/19 12:07:34;;;;;;;1.00;0.90;;;14.70;69.60;;;;;;5074868;28;20044;-77
2021/04/19 12:10:00;;;;;;;1.17;0.90;;;14.60;69.90;;;;;;5055979;28;20054;-75
2021/04/19 12:12:26;;;;;;;0.70;0.70;;;14.50;70.10;;;;;;5074376;28;20044;-74
2021/04/19 12:14:53;;;;;;;1.23;0.90;;;14.40;70.10;;;;;;5073037;28;20044;-76
2021/04/19 12:17:19;;;;;;;1.20;1.00;;;14.30;70.30;;;;;;5074044;28;20050;-76
2021/04/19 12:19:46;;;;;;;0.77;0.77;;;14.20;70.30;;;;;;5074469;28;20048;-73
2021/04/19 12:22:12;;;;;;;0.77;0.77;;;14.20;70.40;;;;;;5072742;28;20102;-76
2021/04/19 12:24:38;;;;;;;0.70;0.70;;;14.20;70.50;;;;;;5072762;28;20040;-77
2021/04/19 12:27:05;;;;;;;0.82;0.68;;;14.20;70.50;;;;;;5074445;28;20394;-77
2021/04/19 12:29:32;;;;;;;1.05;0.70;;;14.00;70.50;;;;;;5073862;28;20044;-76
2021/04/19 12:31:58;;;;;;;1.15;0.70;;;14.10;70.60;;;;;;5073299;28;20044;-77
2021/04/19 12:34:25;;;;;;;1.23;1.00;;;14.10;70.50;;;;;;5072099;28;20067;-76
2021/04/19 12:36:53;;;;;;;1.23;0.95;;;14.10;70.40;;;;;;5074852;28;20442;-76
2021/04/19 12:39:20;;;;;;;1.23;1.00;;;14.20;70.30;;;;;;5073549;28;20155;-78
2021/04/19 12:41:47;;;;;;;1.70;0.93;;;14.20;70.10;;;;;;5073653;28;20037;-76
2021/04/19 12:44:13;;;;;;;1.50;1.00;;;14.20;69.90;;;;;;5036758;28;20065;-73
2021/04/19 12:46:39;;;;;;;1.40;1.10;;;14.20;69.90;;;;;;5057245;28;20116;-75
2021/04/19 12:49:06;;;;;;;1.30;1.10;;;14.30;69.90;;;;;;5073552;28;20040;-76
2021/04/19 12:51:33;;;;;;;1.92;1.02;;;14.30;69.70;;;;;;5055112;28;20040;-73
2021/04/19 12:53:59;;;;;;;0.75;0.75;;;14.40;69.50;;;;;;5073712;28;20044;-75
2021/04/19 12:56:26;;;;;;;1.25;1.10;;;14.40;69.30;;;;;;5072506;28;20044;-74
2021/04/19 12:58:52;;;;;;;1.35;1.02;;;14.50;69.10;;;;;;5072891;28;20055;-75
2021/04/19 13:01:18;;;;;;;1.00;0.90;;;14.60;68.80;;;;;;5071927;28;20036;-75
2021/04/19 13:03:44;;;;;;;1.92;1.08;;;14.70;68.60;;;;;;5072611;28;20089;-75
2021/04/19 13:06:11;;;;;;;1.17;0.90;;;14.70;68.40;;;;;;5055116;28;20485;-76
2021/04/19 13:08:38;;;;;;;1.05;0.93;;;14.80;68.20;;;;;;5073066;28;20040;-77